createdAt,value
2019-01-09T00:01:58.050Z,61.27
2019-01-09T00:04:27.829Z,61.04
2019-01-09T00:06:57.587Z,61.04
2019-01-09T00:09:27.078Z,61.02
2019-01-09T00:11:56.779Z,61.03
2019-01-09T00:14:26.548Z,61.03
2019-01-09T00:16:56.574Z,61.70
2019-01-09T00:19:26.315Z,61.70
2019-01-09T00:21:55.933Z,62.03
2019-01-09T00:24:25.437Z,61.30
2019-01-09T00:26:55.292Z,60.36
2019-01-09T00:29:24.726Z,60.25
2019-01-09T00:31:54.428Z,60.25
2019-01-09T00:34:23.923Z,60.71
2019-01-09T00:36:53.515Z,60.85
2019-01-09T00:39:23.090Z,60.85
2019-01-09T00:41:52.543Z,61.43
2019-01-09T00:44:22.121Z,61.37
2019-01-09T00:46:52.070Z,61.37
2019-01-09T00:49:21.782Z,60.09
2019-01-09T00:51:51.309Z,60.00
2019-01-09T00:54:21.178Z,60.00
2019-01-09T00:56:51.050Z,59.94
2019-01-09T00:59:20.465Z,59.00
2019-01-09T01:02:01.013Z,59.00
2019-01-09T01:05:22.377Z,58.98
2019-01-09T01:08:56.815Z,58.98
2019-01-09T01:12:16.080Z,59.49
2019-01-09T01:15:37.200Z,60.22
2019-01-09T01:18:34.769Z,60.37
2019-01-09T01:21:13.041Z,60.51
2019-01-09T01:24:25.155Z,60.41
2019-01-09T01:27:03.032Z,60.13
2019-01-09T01:30:15.244Z,59.84
2019-01-09T01:33:19.488Z,59.84
2019-01-09T01:36:29.967Z,60.44
2019-01-09T01:39:46.807Z,60.44
2019-01-09T01:42:51.669Z,61.64
2019-01-09T01:45:48.938Z,61.99
2019-01-09T01:49:05.095Z,62.04
2019-01-09T01:51:59.255Z,62.52
2019-01-09T01:54:56.615Z,62.63
2019-01-09T01:58:08.502Z,61.81
2019-01-09T02:01:14.767Z,62.15
2019-01-09T02:04:13.554Z,62.15
2019-01-09T02:07:09.747Z,62.69
2019-01-09T02:09:58.442Z,62.70
2019-01-09T02:12:58.408Z,62.20
2019-01-09T02:15:53.392Z,62.20
2019-01-09T02:18:30.860Z,62.09
2019-01-09T02:21:42.961Z,61.01
2019-01-09T02:24:52.743Z,61.01
2019-01-09T02:28:00.184Z,61.49
2019-01-09T02:31:10.271Z,61.49
2019-01-09T02:33:39.925Z,61.87
2019-01-09T02:36:13.631Z,61.87
2019-01-09T02:38:40.940Z,62.12
2019-01-09T02:41:10.912Z,61.91
2019-01-09T02:43:40.634Z,61.91
2019-01-09T02:46:10.489Z,61.77
2019-01-09T02:48:40.104Z,62.33
2019-01-09T02:51:09.911Z,62.33
2019-01-09T02:53:39.457Z,62.86
2019-01-09T02:56:08.974Z,63.29
2019-01-09T02:58:38.772Z,63.51
2019-01-09T03:01:08.489Z,62.22
2019-01-09T03:03:38.150Z,62.30
2019-01-09T03:06:07.931Z,62.39
2019-01-09T03:08:37.673Z,62.09
2019-01-09T03:11:07.079Z,61.55
2019-01-09T03:13:36.677Z,61.74
2019-01-09T03:16:06.489Z,61.74
2019-01-09T03:18:36.381Z,63.00
2019-01-09T03:21:05.785Z,62.83
2019-01-09T03:23:35.179Z,62.49
2019-01-09T03:26:04.690Z,62.56
2019-01-09T03:28:34.457Z,62.20
2019-01-09T03:31:04.053Z,60.66
2019-01-09T03:33:33.750Z,59.77
2019-01-09T03:36:03.151Z,60.06
2019-01-09T03:38:32.562Z,59.93
2019-01-09T03:41:02.351Z,60.22
2019-01-09T03:43:32.239Z,60.28
2019-01-09T03:46:01.638Z,60.34
2019-01-09T03:48:31.058Z,60.54
2019-01-09T03:51:00.836Z,60.70
2019-01-09T03:53:30.692Z,61.06
2019-01-09T03:56:00.520Z,60.83
2019-01-09T03:58:30.105Z,59.35
2019-01-09T04:00:59.599Z,59.69
2019-01-09T04:03:29.593Z,60.08
2019-01-09T04:05:59.331Z,60.64
2019-01-09T04:08:29.155Z,59.89
2019-01-09T04:10:58.866Z,60.13
2019-01-09T04:13:28.661Z,60.08
2019-01-09T04:15:58.518Z,60.77
2019-01-09T04:18:28.351Z,61.54
2019-01-09T04:20:58.232Z,62.06
2019-01-09T04:23:27.809Z,62.49
2019-01-09T04:25:57.576Z,62.53
2019-01-09T04:28:27.274Z,61.15
2019-01-09T04:30:56.829Z,61.29
2019-01-09T04:33:26.640Z,61.33
2019-01-09T04:35:56.400Z,61.67
2019-01-09T04:38:25.930Z,62.33
2019-01-09T04:40:55.431Z,62.48
2019-01-09T04:43:25.140Z,62.20
2019-01-09T04:45:54.940Z,61.47
2019-01-09T04:48:24.668Z,59.90
2019-01-09T04:50:54.307Z,59.92
2019-01-09T04:53:24.098Z,58.78
2019-01-09T04:55:53.712Z,58.71
2019-01-09T04:58:23.167Z,59.66
2019-01-09T05:00:52.706Z,60.28
2019-01-09T05:03:22.556Z,60.87
2019-01-09T05:05:51.957Z,61.27
2019-01-09T05:08:21.551Z,61.76
2019-01-09T05:10:51.057Z,61.98
2019-01-09T05:13:20.911Z,62.42
2019-01-09T05:15:50.296Z,63.21
2019-01-09T05:18:19.845Z,63.57
2019-01-09T05:20:49.379Z,63.59
2019-01-09T05:23:18.911Z,63.73
2019-01-09T05:25:48.582Z,63.83
2019-01-09T05:28:18.340Z,63.75
2019-01-09T05:30:48.146Z,64.31
2019-01-09T05:33:17.727Z,64.31
2019-01-09T05:35:47.269Z,64.90
2019-01-09T05:38:17.165Z,63.94
2019-01-09T05:40:46.604Z,63.94
2019-01-09T05:43:16.141Z,64.59
2019-01-09T05:45:45.653Z,65.06
2019-01-09T05:48:15.306Z,65.02
2019-01-09T05:50:44.949Z,65.02
2019-01-09T05:53:14.358Z,64.22
2019-01-09T05:55:44.180Z,64.64
2019-01-09T05:58:13.700Z,64.36
2019-01-09T06:00:43.489Z,64.63
2019-01-09T06:03:13.076Z,64.62
2019-01-09T06:05:42.920Z,64.00
2019-01-09T06:08:12.769Z,64.00
2019-01-09T06:10:42.198Z,63.05
2019-01-09T06:13:12.031Z,63.05
2019-01-09T06:15:41.912Z,63.03
2019-01-09T06:18:11.601Z,62.83
2019-01-09T06:20:41.161Z,63.40
2019-01-09T06:23:10.982Z,64.98
2019-01-09T06:25:40.478Z,64.98
2019-01-09T06:28:10.339Z,64.63
2019-01-09T06:30:40.106Z,64.63
2019-01-09T06:33:09.510Z,64.96
2019-01-09T06:35:39.293Z,65.45
2019-01-09T06:38:08.796Z,65.48
2019-01-09T06:40:38.664Z,65.52
2019-01-09T06:43:08.242Z,65.52
2019-01-09T06:45:37.884Z,65.82
2019-01-09T06:48:07.671Z,64.15
2019-01-09T06:50:37.355Z,64.15
2019-01-09T06:53:06.926Z,63.64
2019-01-09T06:55:36.502Z,63.48
2019-01-09T06:58:05.877Z,62.96
2019-01-09T07:00:35.656Z,63.29
2019-01-09T07:03:05.416Z,63.68
2019-01-09T07:05:34.875Z,62.89
2019-01-09T07:08:04.427Z,61.87
2019-01-09T07:10:34.138Z,61.50
2019-01-09T07:13:04.054Z,61.06
2019-01-09T07:15:33.500Z,61.42
2019-01-09T07:18:03.193Z,61.07
2019-01-09T07:20:32.697Z,60.13
2019-01-09T07:23:02.291Z,59.80
2019-01-09T07:25:31.945Z,60.05
2019-01-09T07:28:01.490Z,60.24
2019-01-09T07:30:31.284Z,59.77
2019-01-09T07:33:00.709Z,59.42
2019-01-09T07:35:30.616Z,58.69
2019-01-09T07:38:00.564Z,58.75
2019-01-09T07:40:30.224Z,58.35
2019-01-09T07:42:59.653Z,57.44
2019-01-09T07:45:29.490Z,57.17
2019-01-09T07:47:58.979Z,56.99
2019-01-09T07:50:28.710Z,56.80
2019-01-09T07:52:58.350Z,56.43
2019-01-09T07:55:27.956Z,56.55
2019-01-09T07:57:57.682Z,56.86
2019-01-09T08:00:27.382Z,57.00
2019-01-09T08:02:56.775Z,56.97
2019-01-09T08:05:26.499Z,56.70
2019-01-09T08:07:56.349Z,56.47
2019-01-09T08:10:25.912Z,55.99
2019-01-09T08:12:55.666Z,55.78
2019-01-09T08:15:25.188Z,55.63
2019-01-09T08:17:54.825Z,55.49
2019-01-09T08:20:24.657Z,56.09
2019-01-09T08:22:54.416Z,57.03
2019-01-09T08:25:24.079Z,57.62
2019-01-09T08:27:53.541Z,57.88
2019-01-09T08:30:23.040Z,58.12
2019-01-09T08:32:52.951Z,57.80
2019-01-09T08:35:22.655Z,57.80
2019-01-09T08:37:52.404Z,57.63
2019-01-09T08:40:23.169Z,57.04
2019-01-09T08:42:53.049Z,55.50
2019-01-09T08:45:22.753Z,55.09
2019-01-09T08:47:52.503Z,54.47
2019-01-09T08:50:22.209Z,53.79
2019-01-09T08:52:51.605Z,52.53
2019-01-09T08:55:21.108Z,52.95
2019-01-09T08:57:50.906Z,52.32
2019-01-09T09:00:20.637Z,52.15
2019-01-09T09:02:50.173Z,51.78
2019-01-09T09:05:19.974Z,51.26
2019-01-09T09:07:57.552Z,50.62
2019-01-09T09:10:27.213Z,50.41
2019-01-09T09:12:56.656Z,49.91
2019-01-09T09:15:26.564Z,50.25
2019-01-09T09:17:56.561Z,50.75
2019-01-09T09:20:26.254Z,51.17
2019-01-09T09:22:55.638Z,51.46
2019-01-09T09:25:25.388Z,51.55
2019-01-09T09:27:55.144Z,51.42
2019-01-09T09:30:24.781Z,51.45
2019-01-09T09:32:57.477Z,51.21
2019-01-09T09:35:27.056Z,51.07
2019-01-09T09:37:56.468Z,51.23
2019-01-09T09:40:26.399Z,51.17
2019-01-09T09:42:56.195Z,51.22
2019-01-09T09:45:25.713Z,50.92
2019-01-09T09:47:55.108Z,52.14
2019-01-09T09:50:24.887Z,52.07
2019-01-09T09:52:54.692Z,51.99
2019-01-09T09:55:24.441Z,51.56
2019-01-09T09:57:54.019Z,51.91
2019-01-09T10:00:23.769Z,52.27
2019-01-09T10:02:53.406Z,52.50
2019-01-09T10:05:22.997Z,52.69
2019-01-09T10:07:52.395Z,52.51
2019-01-09T10:10:22.257Z,52.70
2019-01-09T10:12:51.664Z,52.78
2019-01-09T10:15:21.501Z,52.81
2019-01-09T10:17:51.394Z,52.51
2019-01-09T10:20:20.888Z,52.93
2019-01-09T10:22:50.616Z,52.63
2019-01-09T10:25:20.117Z,52.72
2019-01-09T10:27:49.776Z,52.34
2019-01-09T10:30:20.096Z,50.97
2019-01-09T10:32:49.648Z,51.83
2019-01-09T10:35:19.543Z,52.57
2019-01-09T10:37:49.813Z,53.23
2019-01-09T10:40:20.316Z,53.49
2019-01-09T10:42:49.805Z,53.47
2019-01-09T10:45:21.305Z,54.79
2019-01-09T10:47:51.250Z,56.17
2019-01-09T10:50:20.995Z,56.91
2019-01-09T10:52:50.880Z,57.39
2019-01-09T10:55:20.417Z,57.75
2019-01-09T10:57:50.140Z,57.72
2019-01-09T11:00:22.013Z,57.30
2019-01-09T11:02:51.771Z,57.35
2019-01-09T11:05:21.602Z,57.49
2019-01-09T11:07:51.092Z,57.92
2019-01-09T11:10:21.282Z,58.39
2019-01-09T11:12:50.812Z,58.15
2019-01-09T11:15:20.543Z,58.29
2019-01-09T11:17:50.276Z,58.02
2019-01-09T11:20:21.237Z,58.69
2019-01-09T11:22:51.065Z,57.87
2019-01-09T11:25:23.187Z,58.00
2019-01-09T11:27:52.896Z,57.96
2019-01-09T11:30:23.730Z,58.22
2019-01-09T11:32:53.224Z,58.36
2019-01-09T11:35:24.788Z,57.93
2019-01-09T11:37:54.558Z,57.34
2019-01-09T11:40:24.322Z,55.62
2019-01-09T11:42:53.914Z,55.89
2019-01-09T11:45:23.514Z,56.14
2019-01-09T11:47:53.297Z,55.84
2019-01-09T11:50:22.795Z,55.68
2019-01-09T11:52:52.683Z,55.96
2019-01-09T11:55:22.232Z,55.37
2019-01-09T11:57:51.843Z,54.85
2019-01-09T12:00:23.794Z,54.49
2019-01-09T12:02:53.378Z,54.47
2019-01-09T12:05:24.016Z,54.24
2019-01-09T12:07:53.647Z,53.68
2019-01-09T12:10:29.955Z,53.31
2019-01-09T12:12:55.851Z,54.17
2019-01-09T12:15:25.636Z,54.93
2019-01-09T12:17:55.380Z,54.93
2019-01-09T12:20:24.771Z,55.03
2019-01-09T12:22:54.754Z,54.48
2019-01-09T12:25:24.252Z,53.61
2019-01-09T12:27:54.223Z,52.99
2019-01-09T12:30:28.921Z,52.39
2019-01-09T12:32:58.840Z,53.03
2019-01-09T12:35:28.669Z,52.75
2019-01-09T12:37:58.360Z,52.04
2019-01-09T12:40:28.101Z,53.19
2019-01-09T12:42:57.514Z,50.79
2019-01-09T12:45:27.304Z,51.37
2019-01-09T12:47:56.988Z,51.72
2019-01-09T12:50:27.425Z,49.48
2019-01-09T12:52:57.174Z,49.06
2019-01-09T12:55:26.822Z,49.10
2019-01-09T12:57:56.605Z,48.89
2019-01-09T13:00:30.386Z,48.84
2019-01-09T13:03:00.172Z,48.64
2019-01-09T13:05:29.554Z,48.38
2019-01-09T13:07:58.953Z,48.66
2019-01-09T13:10:28.564Z,50.58
2019-01-09T13:12:58.209Z,49.88
2019-01-09T13:15:27.878Z,52.31
2019-01-09T13:17:57.612Z,53.42
2019-01-09T13:20:27.372Z,53.97
2019-01-09T13:22:56.897Z,54.38
2019-01-09T13:25:26.716Z,54.54
2019-01-09T13:27:56.581Z,54.70
2019-01-09T13:30:26.359Z,54.78
2019-01-09T13:32:56.071Z,54.61
2019-01-09T13:35:25.785Z,54.89
2019-01-09T13:37:55.588Z,55.74
2019-01-09T13:40:25.284Z,54.74
2019-01-09T13:42:55.004Z,55.20
2019-01-09T13:45:24.598Z,55.43
2019-01-09T13:47:54.461Z,55.26
2019-01-09T13:50:24.183Z,54.60
2019-01-09T13:52:53.929Z,54.84
2019-01-09T13:55:23.814Z,55.12
2019-01-09T13:57:53.485Z,53.34
2019-01-09T14:00:23.899Z,54.35
2019-01-09T14:02:53.308Z,54.02
2019-01-09T14:05:23.108Z,52.29
2019-01-09T14:07:52.891Z,52.51
2019-01-09T14:10:24.747Z,51.94
2019-01-09T14:12:54.481Z,51.20
2019-01-09T14:15:24.261Z,50.02
2019-01-09T14:17:53.705Z,50.54
2019-01-09T14:20:23.345Z,51.17
2019-01-09T14:22:52.965Z,51.36
2019-01-09T14:25:22.369Z,51.03
2019-01-09T14:27:51.999Z,50.93
2019-01-09T14:30:27.382Z,50.79
2019-01-09T14:32:57.203Z,51.18
2019-01-09T14:35:26.605Z,51.49
2019-01-09T14:37:56.004Z,51.76
2019-01-09T14:40:25.708Z,51.53
2019-01-09T14:42:55.454Z,51.55
2019-01-09T14:45:25.192Z,51.63
2019-01-09T14:47:54.880Z,51.91
2019-01-09T14:50:25.553Z,52.09
2019-01-09T14:52:55.099Z,53.04
2019-01-09T14:55:24.695Z,52.96
2019-01-09T14:57:54.566Z,53.73
2019-01-09T15:00:25.994Z,53.81
2019-01-09T15:02:55.961Z,54.62
2019-01-09T15:05:25.557Z,55.09
2019-01-09T15:07:55.240Z,55.38
2019-01-09T15:10:31.476Z,55.31
2019-01-09T15:13:01.114Z,54.58
2019-01-09T15:15:30.898Z,55.12
2019-01-09T15:18:00.493Z,55.66
2019-01-09T15:20:30.596Z,55.70
2019-01-09T15:23:00.284Z,55.86
2019-01-09T15:25:29.798Z,56.11
2019-01-09T15:27:59.617Z,56.25
2019-01-09T15:30:31.027Z,56.68
2019-01-09T15:33:00.725Z,57.41
2019-01-09T15:35:30.124Z,56.39
2019-01-09T15:37:59.733Z,56.74
2019-01-09T15:40:30.543Z,57.10
2019-01-09T15:43:00.583Z,57.29
2019-01-09T15:45:30.016Z,57.49
2019-01-09T15:47:59.479Z,57.36
2019-01-09T15:50:29.539Z,57.40
2019-01-09T15:52:59.030Z,57.46
2019-01-09T15:55:28.515Z,57.62
2019-01-09T15:57:58.226Z,58.00
2019-01-09T16:00:33.670Z,57.30
2019-01-09T16:03:03.581Z,57.03
2019-01-09T16:05:32.982Z,57.25
2019-01-09T16:08:02.945Z,57.40
2019-01-09T16:10:36.338Z,57.13
2019-01-09T16:13:07.240Z,57.35
2019-01-09T16:15:36.786Z,57.58
2019-01-09T16:18:06.867Z,57.53
2019-01-09T16:20:36.754Z,58.23
2019-01-09T16:23:06.179Z,57.82
2019-01-09T16:25:35.692Z,57.82
2019-01-09T16:28:06.393Z,58.50
2019-01-09T16:30:46.984Z,58.13
2019-01-09T16:33:16.589Z,57.96
2019-01-09T16:35:46.375Z,57.53
2019-01-09T16:38:15.892Z,57.76
2019-01-09T16:40:45.494Z,58.12
2019-01-09T16:43:15.637Z,58.65
2019-01-09T16:45:45.151Z,58.82
2019-01-09T16:48:16.252Z,58.94
2019-01-09T16:50:45.685Z,59.06
2019-01-09T16:53:15.158Z,59.58
2019-01-09T16:55:44.858Z,59.17
2019-01-09T16:58:14.344Z,58.89
2019-01-09T17:00:44.027Z,59.06
2019-01-09T17:03:13.456Z,59.16
2019-01-09T17:05:42.948Z,59.59
2019-01-09T17:08:12.828Z,60.07
2019-01-09T17:10:42.264Z,60.64
2019-01-09T17:13:12.024Z,61.54
2019-01-09T17:15:41.532Z,62.57
2019-01-09T17:18:11.349Z,64.50
2019-01-09T17:20:41.153Z,64.50
2019-01-09T17:23:10.827Z,66.59
2019-01-09T17:25:40.467Z,67.22
2019-01-09T17:28:10.561Z,67.22
2019-01-09T17:30:39.997Z,68.00
2019-01-09T17:33:09.540Z,70.26
2019-01-09T17:35:38.994Z,70.26
2019-01-09T17:38:08.911Z,71.54
2019-01-09T17:40:41.326Z,72.28
2019-01-09T17:43:09.710Z,73.21
2019-01-09T17:45:40.533Z,74.03
2019-01-09T17:48:10.294Z,74.71
2019-01-09T17:50:40.488Z,74.81
2019-01-09T17:53:10.264Z,75.07
2019-01-09T17:55:40.008Z,75.00
2019-01-09T17:58:09.469Z,74.87
2019-01-09T18:00:41.405Z,75.04
2019-01-09T18:03:11.178Z,75.47
2019-01-09T18:05:40.600Z,75.65
2019-01-09T18:08:11.133Z,75.96
2019-01-09T18:10:49.793Z,76.19
2019-01-09T18:13:11.865Z,76.35
2019-01-09T18:15:43.151Z,76.49
2019-01-09T18:18:12.701Z,76.84
2019-01-09T18:20:42.194Z,76.91
2019-01-09T18:23:11.618Z,76.80
2019-01-09T18:25:41.108Z,76.76
2019-01-09T18:28:12.119Z,76.93
2019-01-09T18:31:25.266Z,76.92
2019-01-09T18:34:03.143Z,77.00
2019-01-09T18:37:12.693Z,76.94
2019-01-09T18:40:01.363Z,75.95
2019-01-09T18:42:45.500Z,75.95
2019-01-09T18:46:01.902Z,76.14
2019-01-09T18:49:10.698Z,76.26
2019-01-09T18:52:11.059Z,76.32
2019-01-09T18:54:40.984Z,76.48
2019-01-09T18:57:10.471Z,76.73
2019-01-09T18:59:40.090Z,76.65
2019-01-09T19:02:11.617Z,76.43
2019-01-09T19:04:41.304Z,76.45
2019-01-09T19:07:11.353Z,76.63
2019-01-09T19:09:42.159Z,76.27
2019-01-09T19:12:12.206Z,76.27
2019-01-09T19:14:41.895Z,75.82
2019-01-09T19:17:11.860Z,75.82
2019-01-09T19:19:41.297Z,75.69
2019-01-09T19:22:10.953Z,75.08
2019-01-09T19:24:40.505Z,74.88
2019-01-09T19:27:10.350Z,74.83
2019-01-09T19:29:41.830Z,75.14
2019-01-09T19:32:11.456Z,75.60
2019-01-09T19:34:41.324Z,75.95
2019-01-09T19:37:11.023Z,76.28
2019-01-09T19:39:40.530Z,76.67
2019-01-09T19:42:10.242Z,76.91
2019-01-09T19:44:40.439Z,77.38
2019-01-09T19:47:10.224Z,77.52
2019-01-09T19:49:40.107Z,77.53
2019-01-09T19:52:09.592Z,77.57
2019-01-09T19:54:39.370Z,77.90
2019-01-09T19:57:09.099Z,77.89
2019-01-09T19:59:38.721Z,77.89
2019-01-09T20:02:08.359Z,77.49
2019-01-09T20:04:38.363Z,77.49
2019-01-09T20:07:08.030Z,77.44
2019-01-09T20:09:38.636Z,77.27
2019-01-09T20:12:08.491Z,77.27
2019-01-09T20:14:38.358Z,76.99
2019-01-09T20:17:08.179Z,77.11
2019-01-09T20:19:38.029Z,77.11
2019-01-09T20:22:07.859Z,76.97
2019-01-09T20:24:37.625Z,76.65
2019-01-09T20:27:07.093Z,76.40
2019-01-09T20:29:38.007Z,76.56
2019-01-09T20:32:07.745Z,76.54
2019-01-09T20:34:37.367Z,76.44
2019-01-09T20:37:06.981Z,76.60
2019-01-09T20:39:36.381Z,76.28
2019-01-09T20:42:06.026Z,76.26
2019-01-09T20:44:35.887Z,76.39
2019-01-09T20:47:05.857Z,76.39
2019-01-09T20:49:35.448Z,76.49
2019-01-09T20:52:05.472Z,76.66
2019-01-09T20:54:35.020Z,76.63
2019-01-09T20:57:06.347Z,76.89
2019-01-09T20:59:35.848Z,76.97
2019-01-09T21:02:05.917Z,77.57
2019-01-09T21:04:35.557Z,77.57
2019-01-09T21:07:05.600Z,77.28
2019-01-09T21:09:35.278Z,77.02
2019-01-09T21:12:05.254Z,76.61
2019-01-09T21:14:34.757Z,76.61
2019-01-09T21:17:04.783Z,76.84
2019-01-09T21:19:34.282Z,76.66
2019-01-09T21:22:04.338Z,76.28
2019-01-09T21:24:33.982Z,76.27
2019-01-09T21:27:04.224Z,76.04
2019-01-09T21:29:33.892Z,76.24
2019-01-09T21:32:03.389Z,76.27
2019-01-09T21:34:32.815Z,76.09
2019-01-09T21:37:02.605Z,76.09
2019-01-09T21:39:32.019Z,76.05
2019-01-09T21:42:02.590Z,76.18
2019-01-09T21:44:32.383Z,76.18
2019-01-09T21:47:02.078Z,76.32
2019-01-09T21:49:31.751Z,76.32
2019-01-09T21:52:01.286Z,76.10
2019-01-09T21:54:31.069Z,76.10
2019-01-09T21:57:00.783Z,76.17
2019-01-09T21:59:30.185Z,76.16
2019-01-09T22:01:59.793Z,76.16
2019-01-09T22:04:29.659Z,75.88
2019-01-09T22:06:59.155Z,76.03
2019-01-09T22:09:29.002Z,76.10
2019-01-09T22:12:02.539Z,76.08
2019-01-09T22:14:30.285Z,75.94
2019-01-09T22:16:59.793Z,75.89
2019-01-09T22:19:29.383Z,76.05
